Time;durP1;ratioP1;P1;durP2;ratioP2;P2;SDS_P1;SDS_P2;PMS_P1;PMS_P2;Temp;Humidity;BMP_temperature;BMP_pressure;BME280_temperature;BME280_humidity;BME280_pressure;Samples;Min_cycle;Max_cycle;Signal;HPM_P1;HPM_P2
2024/01/27 00:01:56;;;;;;;;;;;;;;;;;;5111483;27;19976;-73
2024/01/27 00:04:22;;;;;;;;;;;;;;;;;;5113227;27;19923;-73
2024/01/27 00:06:48;;;;;;;;;;;;;;;;;;5112060;27;19934;-73
2024/01/27 00:09:14;;;;;;;;;;;;;;;;;;5112231;27;19976;-73
2024/01/27 00:11:40;;;;;;;;;;;;;;;;;;5112622;27;19936;-73
2024/01/27 00:14:06;;;;;;;;;;;;;;;;;;5111244;27;19923;-73
2024/01/27 00:16:32;;;;;;;;;;;;;;;;;;5112772;27;19923;-73
2024/01/27 00:18:58;;;;;;;;;;;;;;;;;;5111990;27;19927;-73
2024/01/27 00:21:23;;;;;;;;;;;;;;;;;;5113328;27;19970;-73
2024/01/27 00:23:49;;;;;;;;;;;;;;;;;;5111837;27;19930;-73
2024/01/27 00:26:15;;;;;;;;;;;;;;;;;;5111489;27;19930;-73
2024/01/27 00:28:41;;;;;;;;;;;;;;;;;;5108285;28;19950;-73
2024/01/27 00:31:07;;;;;;;;;;;;;;;;;;5108689;28;19924;-72
2024/01/27 00:33:33;;;;;;;;;;;;;;;;;;5112820;27;20278;-73
2024/01/27 00:35:59;;;;;;;;;;;;;;;;;;5112648;27;19930;-73
2024/01/27 00:38:25;;;;;;;;;;;;;;;;;;5112087;27;19934;-73
2024/01/27 00:40:51;;;;;;;;;;;4.60;99.90;;;;;;5111677;27;20003;-73
2024/01/27 00:43:16;;;;;;;;;;;4.50;99.90;;;;;;5111872;27;19962;-74
2024/01/27 00:45:42;;;;;;;;;;;5.40;99.90;;;;;;5104211;28;19980;-73
2024/01/27 00:48:07;;;;;;;;;;;4.50;99.90;;;;;;5107490;27;20112;-74
2024/01/27 00:50:33;;;;;;;;;;;4.70;99.90;;;;;;5108766;28;19924;-73
2024/01/27 00:52:58;;;;;;;;;;;5.60;99.90;;;;;;5125880;27;19930;-73
2024/01/27 00:55:24;;;;;;;;;;;4.40;99.90;;;;;;5131141;27;19927;-73
2024/01/27 00:57:49;;;;;;;;;;;4.30;99.90;;;;;;5110549;27;19923;-73
2024/01/27 01:00:15;;;;;;;;;;;4.10;99.90;;;;;;5112784;27;19924;-74
2024/01/27 01:02:41;;;;;;;;;;;4.40;99.90;;;;;;5112057;27;19946;-74
2024/01/27 01:05:07;;;;;;;;;;;5.30;99.90;;;;;;5110965;27;20382;-73
2024/01/27 01:07:33;;;;;;;;;;;4.40;99.90;;;;;;5092820;28;19928;-73
2024/01/27 01:09:58;;;;;;;;;;;4.30;99.90;;;;;;5091649;28;19931;-73
2024/01/27 01:12:25;;;;;;;;;;;4.30;99.90;;;;;;5093633;27;20276;-74
2024/01/27 01:14:51;;;;;;;;;;;4.30;99.90;;;;;;5110649;27;19931;-74
2024/01/27 01:17:16;;;;;;;;;;;4.30;99.90;;;;;;5112322;28;19930;-74
2024/01/27 01:19:42;;;;;;;;;;;4.30;99.90;;;;;;5111262;28;19928;-73
2024/01/27 01:22:07;;;;;;;;;;;4.20;99.90;;;;;;5111643;28;20442;-74
2024/01/27 01:24:33;;;;;;;;;;;5.40;99.90;;;;;;5112492;27;20362;-74
2024/01/27 01:26:59;;;;;;;;;;;4.20;99.90;;;;;;5110185;27;19959;-74
2024/01/27 01:29:25;;;;;;;;;;;4.10;99.90;;;;;;5112163;28;19931;-74
2024/01/27 01:31:51;;;;;;;;;;;4.10;99.90;;;;;;5130303;28;19923;-74
2024/01/27 01:34:16;;;;;;;;;;;4.10;99.90;;;;;;5111500;28;19924;-73
2024/01/27 01:36:42;;;;;;;;;;;4.10;99.90;;;;;;5111252;28;20024;-74
2024/01/27 01:39:09;;;;;;;;;;;4.10;99.90;;;;;;5111314;28;20265;-74
2024/01/27 01:41:35;;;;;;;;;;;4.30;99.90;;;;;;5109761;28;19924;-74
2024/01/27 01:44:00;;;;;;;;;;;4.50;99.90;;;;;;5109675;28;19926;-74
2024/01/27 01:46:26;;;;;;;;;;;2.70;99.90;;;;;;5106895;28;19984;-74
2024/01/27 01:48:51;;;;;;;;;;;4.10;99.90;;;;;;5103648;28;19920;-74
2024/01/27 01:51:17;;;;;;;;;;;4.10;99.90;;;;;;5112092;28;19931;-74
2024/01/27 01:53:43;;;;;;;;;;;4.10;99.90;;;;;;5096240;27;20390;-74
2024/01/27 01:56:09;;;;;;;;;;;4.10;99.90;;;;;;5111781;28;19923;-74
2024/01/27 01:58:34;;;;;;;;;;;4.10;99.90;;;;;;5129021;27;19950;-74
2024/01/27 02:01:00;;;;;;;;;;;6.10;99.90;;;;;;5111226;28;19924;-74
2024/01/27 02:03:26;;;;;;;;;;;4.10;99.90;;;;;;5111700;28;20313;-74
2024/01/27 02:05:52;;;;;;;;;;;4.10;99.90;;;;;;5113425;27;19931;-73
2024/01/27 02:08:17;;;;;;;;;;;4.10;99.90;;;;;;5132999;27;19930;-74
2024/01/27 02:10:43;;;;;;;;;;;4.20;99.90;;;;;;5133372;27;20022;-74
2024/01/27 02:13:18;;;;;;;;;;;4.20;99.90;;;;;;5113815;27;19931;-74
2024/01/27 02:15:44;;;;;;;;;;;4.20;99.90;;;;;;5114607;27;19930;-74
2024/01/27 02:18:10;;;;;;;;;;;5.10;99.90;;;;;;5115069;27;20129;-74
2024/01/27 02:20:35;;;;;;;;;;;4.20;99.90;;;;;;5115830;27;19923;-74
2024/01/27 02:23:04;;;;;;;;;;;4.20;99.90;;;;;;5114122;27;19929;-75
2024/01/27 02:25:33;;;;;;;;;;;4.10;99.90;;;;;;5115870;27;19986;-74
2024/01/27 02:27:59;;;;;;;;;;;4.20;99.90;;;;;;5113921;27;20423;-74
2024/01/27 02:30:24;;;;;;;;;;;4.10;99.90;;;;;;5114672;27;19931;-74
2024/01/27 02:32:50;;;;;;;;;;;4.10;99.90;;;;;;5132689;27;19966;-74
2024/01/27 02:35:16;;;;;;;;;;;4.10;99.90;;;;;;5115241;27;19927;-74
2024/01/27 02:37:41;;;;;;;;;;;4.30;99.90;;;;;;5114638;27;19973;-74
2024/01/27 02:40:07;;;;;;;;;;;4.10;99.90;;;;;;5114665;27;19931;-74
2024/01/27 02:42:33;;;;;;;;;;;4.10;99.90;;;;;;5112686;27;19935;-74
2024/01/27 02:44:59;;;;;;;;;;;4.10;99.90;;;;;;5110355;28;19923;-74
2024/01/27 02:47:24;;;;;;;;;;;4.10;99.90;;;;;;5116607;27;19935;-74
2024/01/27 02:49:50;;;;;;;;;;;4.10;99.90;;;;;;5093176;28;19924;-74
2024/01/27 02:52:15;;;;;;;;;;;4.00;99.90;;;;;;5110660;28;20352;-74
2024/01/27 02:54:41;;;;;;;;;;;4.00;99.90;;;;;;5098058;27;19931;-74
2024/01/27 02:57:06;;;;;;;;;;;4.00;99.90;;;;;;5112505;27;20390;-74
2024/01/27 02:59:32;;;;;;;;;;;4.00;99.90;;;;;;5114648;27;20306;-74
2024/01/27 03:01:57;;;;;;;;;;;4.00;99.90;;;;;;5132628;27;19930;-74
2024/01/27 03:04:23;;;;;;;;;;;3.90;99.90;;;;;;5132520;27;19924;-74
2024/01/27 03:06:48;;;;;;;;;;;3.90;99.90;;;;;;5114399;27;19931;-74
2024/01/27 03:09:14;;;;;;;;;;;3.90;99.90;;;;;;5114954;27;19931;-74
2024/01/27 03:11:39;;;;;;;;;;;3.90;99.90;;;;;;5112195;27;19923;-74
2024/01/27 03:14:05;;;;;;;;;;;3.80;99.90;;;;;;5113162;27;19924;-74
2024/01/27 03:16:30;;;;;;;;;;;3.90;99.90;;;;;;5114724;27;19946;-74
2024/01/27 03:18:56;;;;;;;;;;;3.80;99.90;;;;;;5131331;27;19924;-74
2024/01/27 03:21:21;;;;;;;;;;;3.90;99.90;;;;;;5114605;27;20011;-74
2024/01/27 03:23:47;;;;;;;;;;;3.80;99.90;;;;;;5113797;27;19923;-74
2024/01/27 03:26:12;;;;;;;;;;;4.10;99.90;;;;;;5105719;27;19931;-74
2024/01/27 03:28:38;;;;;;;;;;;3.60;99.90;;;;;;5109988;27;19954;-74
2024/01/27 03:31:03;;;;;;;;;;;3.50;99.90;;;;;;5113514;27;20544;-74
2024/01/27 03:33:30;;;;;;;;;;;3.80;99.90;;;;;;5113125;27;20826;-74
2024/01/27 03:35:56;;;;;;;;;;;4.90;99.90;;;;;;5114090;27;20386;-74
2024/01/27 03:38:21;;;;;;;;;;;4.10;99.90;;;;;;5113879;27;19931;-74
2024/01/27 03:40:47;;;;;;;;;;;4.30;99.90;;;;;;5107695;27;19963;-74
2024/01/27 03:43:12;;;;;;;;;;;4.10;99.90;;;;;;5111395;27;20353;-74
2024/01/27 03:45:38;;;;;;;;;;;3.90;99.90;;;;;;5131950;27;19925;-74
2024/01/27 03:48:03;;;;;;;;;;;4.00;99.90;;;;;;5109339;27;20015;-74
2024/01/27 03:50:29;;;;;;;;;;;4.10;99.90;;;;;;5111244;27;19966;-74
2024/01/27 03:52:54;;;;;;;;;;;3.90;99.90;;;;;;5104155;27;20386;-74
2024/01/27 03:55:20;;;;;;;;;;;3.90;99.90;;;;;;5113171;27;19965;-74
2024/01/27 03:57:45;;;;;;;;;;;4.00;99.90;;;;;;5112529;27;19923;-74
2024/01/27 04:00:12;;;;;;;;;;;4.00;99.90;;;;;;5113129;27;19977;-74
2024/01/27 04:02:38;;;;;;;;;;;4.00;99.90;;;;;;5112017;27;20333;-74
2024/01/27 04:05:04;;;;;;;;;;;4.20;99.90;;;;;;5112730;27;19927;-74
2024/01/27 04:07:30;;;;;;;;;;;3.90;99.90;;;;;;5112238;27;19923;-73
2024/01/27 04:09:56;;;;;;;;;;;4.10;99.90;;;;;;5112430;27;19991;-74
2024/01/27 04:12:21;;;;;;;;;;;4.00;99.90;;;;;;5111448;27;19923;-74
2024/01/27 04:14:47;;;;;;;;;;;3.90;99.90;;;;;;5111251;27;19930;-74
2024/01/27 04:17:12;;;;;;;;;;;4.50;99.90;;;;;;5112404;27;20374;-74
2024/01/27 04:19:38;;;;;;;;;;;4.20;99.90;;;;;;5112743;27;19924;-74
2024/01/27 04:22:03;;;;;;;;;;;4.00;99.90;;;;;;5108169;28;19932;-74
2024/01/27 04:24:29;;;;;;;;;;;4.70;99.90;;;;;;5112843;27;19924;-73
2024/01/27 04:26:54;;;;;;;;;;;4.10;99.90;;;;;;5112181;27;20014;-73
2024/01/27 04:29:20;;;;;;;;;;;4.00;99.90;;;;;;5111026;27;20352;-73
2024/01/27 04:31:45;;;;;;;;;;;4.20;99.90;;;;;;5112253;27;20410;-74
2024/01/27 04:34:11;;;;;;;;;;;4.10;99.90;;;;;;5112521;27;19947;-74
2024/01/27 04:36:36;;;;;;;;;;;4.00;99.90;;;;;;5111994;27;19923;-74
2024/01/27 04:39:02;;;;;;;;;;;4.00;99.90;;;;;;5112321;27;19950;-74
2024/01/27 04:41:28;;;;;;;;;;;3.90;99.90;;;;;;5112815;27;19968;-73
2024/01/27 04:43:55;;;;;;;;;;;4.00;99.90;;;;;;5111045;27;20011;-74
2024/01/27 04:46:20;;;;;;;;;;;4.40;99.90;;;;;;5131466;27;20362;-74
2024/01/27 04:48:47;;;;;;;;;;;3.50;99.90;;;;;;5109719;27;19934;-74
2024/01/27 04:51:12;;;;;;;;;;;3.70;99.90;;;;;;5107094;27;19927;-74
2024/01/27 04:53:38;;;;;;;;;;;3.70;99.90;;;;;;5098995;28;20293;-74
2024/01/27 04:56:07;;;;;;;;;;;4.80;99.90;;;;;;5108905;28;19935;-73
2024/01/27 04:58:33;;;;;;;;;;;3.80;99.90;;;;;;5107119;28;19938;-73
2024/01/27 05:00:59;;;;;;;;;;;4.10;99.90;;;;;;5119113;27;19924;-73
2024/01/27 05:03:24;;;;;;;;;;;4.00;99.90;;;;;;5129094;27;20393;-73
2024/01/27 05:05:50;;;;;;;;;;;3.70;99.90;;;;;;5111643;27;19924;-73
2024/01/27 05:08:15;;;;;;;;;;;3.80;99.90;;;;;;5111633;27;19931;-73
2024/01/27 05:10:41;;;;;;;;;;;3.70;99.90;;;;;;5111351;27;19930;-73
2024/01/27 05:13:06;;;;;;;;;;;4.00;99.90;;;;;;5110990;28;19931;-74
2024/01/27 05:15:32;;;;;;;;;;;4.00;99.90;;;;;;5117355;27;19962;-74
2024/01/27 05:17:58;;;;;;;;;;;5.50;99.90;;;;;;5110649;27;19927;-74
2024/01/27 05:20:23;;;;;;;;;;;4.20;99.90;;;;;;5111312;28;19939;-74
2024/01/27 05:22:49;;;;;;;;;;;4.10;99.90;;;;;;5129697;28;19929;-74
2024/01/27 05:25:16;;;;;;;;;;;5.50;99.90;;;;;;5111572;28;20011;-74
2024/01/27 05:27:41;;;;;;;;;;;3.80;99.90;;;;;;5111675;28;20377;-74
2024/01/27 05:30:07;;;;;;;;;;;4.60;99.90;;;;;;5110992;28;20100;-74
2024/01/27 05:32:33;;;;;;;;;;;3.90;99.90;;;;;;5110773;28;20281;-74
2024/01/27 05:34:58;;;;;;;;;;;3.80;99.90;;;;;;5111442;28;19976;-74
2024/01/27 05:37:24;;;;;;;;;;;4.30;99.90;;;;;;5111430;28;19957;-73
2024/01/27 05:39:49;;;;;;;;;;;3.70;99.90;;;;;;5111546;27;19972;-74
2024/01/27 05:42:15;;;;;;;;;;;3.70;99.90;;;;;;5115582;27;20334;-74
2024/01/27 05:44:40;;;;;;;;;;;3.50;99.90;;;;;;5116200;27;19962;-74
2024/01/27 05:47:06;;;;;;;;;;;3.80;99.90;;;;;;5114664;27;20018;-74
2024/01/27 05:49:32;;;;;;;;;;;3.70;99.90;;;;;;5113675;27;20142;-74
2024/01/27 05:51:57;;;;;;;;;;;3.90;99.90;;;;;;5102590;27;19923;-74
2024/01/27 05:54:23;;;;;;;;;;;3.40;99.90;;;;;;5115717;27;20006;-74
2024/01/27 05:56:49;;;;;;;;;;;5.90;99.90;;;;;;5115379;27;19981;-74
2024/01/27 05:59:14;;;;;;;;;;;4.30;99.90;;;;;;5115332;27;20434;-74
2024/01/27 06:01:40;;;;;;;;;;;4.90;99.90;;;;;;5115273;27;19967;-74
2024/01/27 06:04:06;;;;;;;;;;;3.50;99.90;;;;;;5115542;27;20010;-74
2024/01/27 06:06:34;;;;;;;;;;;;;;;;;;5115888;27;20096;-74
2024/01/27 06:09:00;;;;;;;;;;;;;;;;;;5113642;27;19923;-74
2024/01/27 06:11:26;;;;;;;;;;;;;;;;;;5115616;27;19930;-74
2024/01/27 06:13:52;;;;;;;;;;;;;;;;;;5114164;27;19923;-73
2024/01/27 06:16:21;;;;;;;;;;;;;;;;;;5114800;27;20399;-74
2024/01/27 06:18:47;;;;;;;;;;;;;;;;;;5115069;27;19936;-74
2024/01/27 06:21:13;;;;;;;;;;;;;;;;;;5114711;27;19927;-74
2024/01/27 06:23:39;;;;;;;;;;;;;;;;;;5115707;27;20306;-74
2024/01/27 06:26:05;;;;;;;;;;;;;;;;;;5115395;27;19928;-74
2024/01/27 06:28:31;;;;;;;;;;;;;;;;;;5112604;27;19972;-74
2024/01/27 06:30:57;;;;;;;;;;;;;;;;;;5114969;27;19929;-74
2024/01/27 06:33:23;;;;;;;;;;;;;;;;;;5115479;27;19924;-74
2024/01/27 06:35:49;;;;;;;;;;;;;;;;;;5114216;27;19967;-74
2024/01/27 06:38:15;;;;;;;;;;;;;;;;;;5114776;27;19928;-74
2024/01/27 06:40:41;;;;;;;;;;;;;;;;;;5115715;27;20275;-74
2024/01/27 06:43:07;;;;;;;;;;;;;;;;;;5112994;27;20045;-74
2024/01/27 06:45:33;;;;;;;;;;;;;;;;;;5114835;27;19927;-74
2024/01/27 06:47:59;;;;;;;;;;;;;;;;;;5114234;27;20004;-74
2024/01/27 06:50:25;;;;;;;;;;;;;;;;;;5112889;27;20382;-74
2024/01/27 06:52:52;;;;;;;;;;;;;;;;;;5104840;27;19932;-74
2024/01/27 06:55:17;;;;;;;;;;;;;;;;;;5114534;27;20310;-74
2024/01/27 06:57:43;;;;;;;;;;;;;;;;;;5113195;27;20014;-74
2024/01/27 07:00:14;;;;;;;;;;;;;;;;;;5114004;27;20042;-74
2024/01/27 07:02:39;;;;;;;;;;;;;;;;;;5114827;27;19945;-74
2024/01/27 07:05:05;;;;;;;;;;;;;;;;;;5113657;27;20359;-74
2024/01/27 07:07:31;;;;;;;;;;;;;;;;;;5114834;27;20006;-74
2024/01/27 07:09:57;;;;;;;;;;;;;;;;;;5114176;27;19930;-75
2024/01/27 07:12:23;;;;;;;;;;;;;;;;;;5111619;27;20025;-74
2024/01/27 07:14:49;;;;;;;;;;;;;;;;;;5112272;27;20238;-74
2024/01/27 07:17:15;;;;;;;;;;;;;;;;;;5112393;27;19934;-74
2024/01/27 07:19:41;;;;;;;;;;;;;;;;;;5114386;27;19924;-74
2024/01/27 07:22:07;;;;;;;;;;;;;;;;;;5113806;27;20018;-74
2024/01/27 07:24:33;;;;;;;;;;;;;;;;;;5113680;27;20385;-74
2024/01/27 07:26:59;;;;;;;;;;;;;;;;;;5113046;27;19935;-74
2024/01/27 07:29:25;;;;;;;;;;;;;;;;;;5112591;27;19946;-74
2024/01/27 07:31:50;;;;;;;;;;;;;;;;;;5112772;27;20263;-74
2024/01/27 07:34:16;;;;;;;;;;;;;;;;;;5113841;27;21300;-74
2024/01/27 07:36:43;;;;;;;;;;;;;;;;;;5113408;27;19990;-74
2024/01/27 07:39:09;;;;;;;;;;;;;;;;;;5112138;27;20028;-74
2024/01/27 07:41:35;;;;;;;;;;;;;;;;;;5113943;27;20366;-74
2024/01/27 07:44:01;;;;;;;;;;;;;;;;;;5112427;27;19955;-74
2024/01/27 07:46:27;;;;;;;;;;;;;;;;;;5113169;27;20060;-74
2024/01/27 07:48:53;;;;;;;;;;;;;;;;;;5113422;27;19928;-74
2024/01/27 07:51:19;;;;;;;;;;;;;;;;;;5111011;27;20330;-73
2024/01/27 07:53:45;;;;;;;;;;;;;;;;;;5107112;27;19924;-73
2024/01/27 07:56:10;;;;;;;;;;;;;;;;;;5113277;27;19923;-73
2024/01/27 07:58:36;;;;;;;;;;;;;;;;;;5111306;27;19938;-73
2024/01/27 08:01:02;;;;;;;;;;;;;;;;;;5111860;27;19928;-72
2024/01/27 08:03:28;;;;;;;;;;;;;;;;;;5111434;27;19919;-73
2024/01/27 08:05:55;;;;;;;;;;;;;;;;;;5114261;27;19931;-73
2024/01/27 08:08:21;;;;;;;;;;;;;;;;;;5132126;27;19934;-73
2024/01/27 08:10:47;;;;;;;;;;;;;;;;;;5112462;27;19920;-73
2024/01/27 08:13:13;;;;;;;;;;;;;;;;;;5106517;27;19927;-73
2024/01/27 08:15:39;;;;;;;;;;;;;;;;;;5112626;27;19930;-73
2024/01/27 08:18:05;;;;;;;;;;;;;;;;;;5112665;27;20019;-73
2024/01/27 08:20:31;;;;;;;;;;;;;;;;;;5112869;27;20257;-73
2024/01/27 08:22:57;;;;;;;;;;;;;;;;;;5112049;27;20449;-73
2024/01/27 08:25:23;;;;;;;;;;;;;;;;;;5112819;27;19932;-73
2024/01/27 08:27:49;;;;;;;;;;;;;;;;;;5110947;27;19931;-73
2024/01/27 08:30:15;;;;;;;;;;;;;;;;;;5109248;27;20449;-73
2024/01/27 08:32:40;;;;;;;;;;;;;;;;;;5113148;27;20010;-72
2024/01/27 08:35:06;;;;;;;;;;;;;;;;;;5111582;27;19959;-73
2024/01/27 08:37:38;;;;;;;;;;;;;;;;;;5112627;27;19970;-73
2024/01/27 08:40:04;;;;;;;;;;;;;;;;;;5112150;27;19967;-73
2024/01/27 08:42:30;;;;;;;;;;;;;;;;;;5110769;27;19979;-73
2024/01/27 08:44:56;;;;;;;;;;;;;;;;;;5111187;27;19977;-73
2024/01/27 08:47:22;;;;;;;;;;;;;;;;;;5130851;27;19924;-73
2024/01/27 08:49:48;;;;;;;;;;;;;;;;;;5110697;27;19931;-73
2024/01/27 08:52:14;;;;;;;;;;;;;;;;;;5109806;27;19945;-73
2024/01/27 08:54:40;;;;;;;;;;;;;;;;;;5108588;27;19946;-73
2024/01/27 08:57:06;;;;;;;;;;;;;;;;;;5110023;27;20030;-73
2024/01/27 08:59:32;;;;;;;;;;;;;;;;;;5110734;27;20002;-73
2024/01/27 09:01:58;;;;;;;;;;;;;;;;;;5111869;27;19930;-73
2024/01/27 09:04:24;;;;;;;;;;;;;;;;;;5111733;27;19931;-73
2024/01/27 09:06:50;;;;;;;;;;;;;;;;;;5112111;27;19923;-74
2024/01/27 09:09:16;;;;;;;;;;;;;;;;;;5112436;28;19923;-73
2024/01/27 09:11:46;;;;;;;;;;;;;;;;;;5111325;27;19934;-73
2024/01/27 09:14:15;;;;;;;;;;;;;;;;;;5111067;28;19924;-73
2024/01/27 09:16:45;;;;;;;;;;;;;;;;;;5130713;27;20375;-73
2024/01/27 09:19:14;;;;;;;;;;;;;;;;;;5129930;28;20021;-73
2024/01/27 09:21:43;;;;;;;;;;;;;;;;;;5130934;28;19924;-73
2024/01/27 09:24:12;;;;;;;;;;;;;;;;;;5109413;28;19927;-73
2024/01/27 09:26:40;;;;;;;;;;;;;;;;;;5130668;27;20338;-73
2024/01/27 09:29:09;;;;;;;;;;;;;;;;;;5129403;28;20234;-73
2024/01/27 09:31:36;;;;;;;;;;;;;;;;;;5111101;28;19941;-73
2024/01/27 09:34:05;;;;;;;;;;;;;;;;;;5112062;28;20350;-73
2024/01/27 09:36:34;;;;;;;;;;;;;;;;;;5112228;28;20018;-73
2024/01/27 09:39:03;;;;;;;;;;;;;;;;;;5111062;28;19927;-73
2024/01/27 09:41:31;;;;;;;;;;;;;;;;;;5110717;28;20000;-73
2024/01/27 09:43:59;;;;;;;;;;;;;;;;;;5111150;28;19980;-72
2024/01/27 09:46:26;;;;;;;;;;;;;;;;;;5110412;28;19930;-73
2024/01/27 09:48:55;;;;;;;;;;;;;;;;;;5129735;27;19973;-73
2024/01/27 09:51:24;;;;;;;;;;;;;;;;;;5128164;27;19929;-73
2024/01/27 09:53:53;;;;;;;;;;;;;;;;;;5111323;28;19923;-73
2024/01/27 09:56:21;;;;;;;;;;;;;;;;;;5090820;28;19930;-73
2024/01/27 09:58:49;;;;;;;;;;;;;;;;;;5108169;28;20321;-73
2024/01/27 10:01:17;;;;;;;;;;;;;;;;;;5128784;28;19923;-73
2024/01/27 10:03:44;;;;;;;;;;;;;;;;;;5130612;27;19923;-73
2024/01/27 10:06:11;;;;;;;;;;;;;;;;;;5129350;28;20435;-74
2024/01/27 10:08:38;;;;;;;;;;;;;;;;;;5111944;28;20034;-73
2024/01/27 10:11:05;;;;;;;;;;;;;;;;;;5110597;28;20398;-73
2024/01/27 10:13:32;;;;;;;;;;;;;;;;;;5108827;28;19935;-73
2024/01/27 10:15:59;;;;;;;;;;;;;;;;;;5111224;28;19927;-72
2024/01/27 10:18:26;;;;;;;;;;;;;;;;;;5112012;28;19926;-72
2024/01/27 10:20:52;;;;;;;;;;;6.00;99.90;;;;;;5110363;28;19930;-73
2024/01/27 10:23:17;;;;;;;;;;;6.30;99.90;;;;;;5112020;28;19923;-73
2024/01/27 10:25:43;;;;;;;;;;;6.90;99.90;;;;;;5130293;27;20417;-72
2024/01/27 10:28:10;;;;;;;;;;;;;;;;;;5112827;27;19927;-73
2024/01/27 10:30:37;;;;;;;;;;;;;;;;;;5114987;27;20408;-72
2024/01/27 10:33:04;;;;;;;;;;;;;;;;;;5114020;27;19930;-72
2024/01/27 10:35:31;;;;;;;;;;;;;;;;;;5115142;27;19923;-73
2024/01/27 10:37:56;;;;;;;;;;;8.50;99.90;;;;;;5133365;27;19923;-72
2024/01/27 10:40:26;;;;;;;;;;;7.10;99.90;;;;;;5133764;27;19946;-72
2024/01/27 10:43:02;;;;;;;;;;;7.10;99.90;;;;;;5112807;27;19923;-72
2024/01/27 10:45:38;;;;;;;;;;;6.60;99.90;;;;;;5114492;27;20402;-72
2024/01/27 10:48:04;;;;;;;;;;;6.80;99.90;;;;;;5114308;27;20075;-73
2024/01/27 10:50:30;;;;;;;;;;;7.10;99.90;;;;;;5114077;27;19930;-73
2024/01/27 10:53:01;;;;;;;;;;;8.00;99.90;;;;;;5114182;27;20200;-72
2024/01/27 10:55:27;;;;;;;;;;;8.10;99.90;;;;;;5125957;27;20284;-72
2024/01/27 10:57:53;;;;;;;;;;;9.10;99.90;;;;;;5130656;27;20010;-72
2024/01/27 11:00:22;;;;;;;;;;;;;;;;;;5132810;27;19923;-72
2024/01/27 11:02:52;;;;;;;;;;;8.90;99.90;;;;;;5111966;27;19934;-72
2024/01/27 11:05:19;;;;;;;;;;;9.00;99.90;;;;;;5132421;27;19965;-73
2024/01/27 11:07:46;;;;;;;;;;;9.10;99.90;;;;;;5133041;27;19970;-72
2024/01/27 11:10:11;;;;;;;;;;;9.20;99.90;;;;;;5114115;27;19923;-72
2024/01/27 11:12:37;;;;;;;;;;;9.70;99.90;;;;;;5113981;27;20274;-72
2024/01/27 11:15:03;;;;;;;;;;;10.40;99.90;;;;;;5132347;27;20894;-72
2024/01/27 11:17:37;;;;;;;;;;;11.20;99.90;;;;;;5113296;27;19920;-72
2024/01/27 11:20:03;;;;;;;;;;;11.90;99.90;;;;;;5132326;27;20010;-73
2024/01/27 11:22:30;;;;;;;;;;;12.40;99.90;;;;;;5114397;27;20018;-72
2024/01/27 11:25:14;;;;;;;;;;;12.40;99.90;;;;;;5131854;27;20028;-72
2024/01/27 11:27:40;;;;;;;;;;;12.30;99.90;;;;;;5132123;27;19923;-72
2024/01/27 11:30:24;;;;;;;;;;;12.10;99.90;;;;;;5131945;27;19924;-72
2024/01/27 11:32:49;;;;;;;;;;;11.70;99.90;;;;;;5129468;27;19924;-72
2024/01/27 11:35:17;;;;;;;;;;;11.30;99.90;;;;;;5114765;27;19927;-72
2024/01/27 11:37:42;;;;;;;;;;;11.00;99.90;;;;;;5113562;27;19924;-72
2024/01/27 11:40:09;;;;;;;;;;;10.70;99.90;;;;;;5113702;27;20394;-73
2024/01/27 11:42:34;;;;;;;;;;;10.50;99.90;;;;;;5131825;27;19954;-72
2024/01/27 11:45:00;;;;;;;;;;;10.70;99.90;;;;;;5112368;27;19990;-73
2024/01/27 11:47:25;;;;;;;;;;;10.80;99.90;;;;;;5113780;27;20243;-73
2024/01/27 11:49:53;;;;;;;;;;;10.00;99.90;;;;;;5113845;27;20021;-72
2024/01/27 11:52:18;;;;;;;;;;;9.90;99.90;;;;;;5102311;28;19926;-72
2024/01/27 11:54:44;;;;;;;;;;;9.70;99.90;;;;;;5093628;28;20295;-72
2024/01/27 11:57:09;;;;;;;;;;;9.70;99.90;;;;;;5103806;27;20021;-72
2024/01/27 11:59:35;;;;;;;;;;;9.60;99.90;;;;;;5112708;27;20010;-72
2024/01/27 12:02:04;;;;;;;;;;;9.60;99.90;;;;;;5111914;27;20022;-72
2024/01/27 12:04:29;;;;;;;;;;;9.70;99.90;;;;;;5113443;27;20002;-72
2024/01/27 12:06:55;;;;;;;;;;;9.70;99.90;;;;;;5111953;27;20023;-72
2024/01/27 12:09:22;;;;;;;;;;;10.00;99.90;;;;;;5113876;27;19996;-72
2024/01/27 12:11:47;;;;;;;;;;;9.80;99.90;;;;;;5112206;27;19928;-72
2024/01/27 12:14:13;;;;;;;;;;;9.90;99.90;;;;;;5110969;27;19931;-72
2024/01/27 12:16:39;;;;;;;;;;;10.10;99.90;;;;;;5113641;27;19920;-72
2024/01/27 12:19:04;;;;;;;;;;;10.40;99.90;;;;;;5110740;27;19927;-73
2024/01/27 12:21:30;;;;;;;;;;;10.80;99.90;;;;;;5111886;27;19930;-70
2024/01/27 12:23:56;;;;;;;;;;;11.50;99.90;;;;;;5112560;27;19972;-73
2024/01/27 12:26:25;;;;;;;;;;;12.50;99.90;;;;;;5110718;27;19972;-72
2024/01/27 12:28:51;;;;;;;;;;;13.80;99.90;;;;;;5108914;27;19975;-72
2024/01/27 12:31:18;;;;;;;;;;;15.10;99.90;;;;;;5111254;27;20505;-72
2024/01/27 12:33:56;;;;;;;;;;;16.20;99.90;;;;;;5111755;27;19972;-72
2024/01/27 12:36:22;;;;;;;;;;;17.30;99.90;;;;;;5110339;27;19983;-73
2024/01/27 12:38:53;;;;;;;;;;;18.50;99.90;;;;;;5111662;27;20026;-73
2024/01/27 12:41:18;;;;;;;;;;;19.50;99.90;;;;;;5112199;27;19927;-73
2024/01/27 12:43:44;;;;;;;;;;;20.20;99.90;;;;;;5111261;27;19924;-73
2024/01/27 12:46:10;;;;;;;;;;;20.90;99.20;;;;;;5113314;27;20072;-73
2024/01/27 12:48:36;;;;;;;;;;;21.50;98.40;;;;;;5112157;27;19923;-73
2024/01/27 12:51:02;;;;;;;;;;;21.90;96.30;;;;;;5112063;27;19934;-73
2024/01/27 12:53:28;;;;;;;;;;;22.00;94.80;;;;;;5093218;27;20274;-73
2024/01/27 12:55:53;;;;;;;;;;;22.00;93.50;;;;;;5111820;27;19924;-73
2024/01/27 12:58:19;;;;;;;;;;;21.90;93.50;;;;;;5103249;28;19934;-73
2024/01/27 13:00:44;;;;;;;;;;;22.10;92.20;;;;;;5108074;28;19923;-73
2024/01/27 13:03:10;;;;;;;;;;;22.00;92.20;;;;;;5111136;27;20084;-73
2024/01/27 13:05:35;;;;;;;;;;;22.10;91.10;;;;;;5110342;27;19927;-73
2024/01/27 13:08:01;;;;;;;;;;;22.30;91.20;;;;;;5106033;27;19923;-72
2024/01/27 13:10:26;;;;;;;;;;;22.60;91.20;;;;;;5102979;28;19985;-73
2024/01/27 13:12:52;;;;;;;;;;;22.90;89.40;;;;;;5110335;27;19923;-73
2024/01/27 13:15:18;;;;;;;;;;;23.10;86.70;;;;;;5110069;28;20294;-73
2024/01/27 13:17:44;;;;;;;;;;;23.20;87.30;;;;;;5128674;27;19923;-73
2024/01/27 13:20:10;;;;;;;;;;;23.00;86.20;;;;;;5130604;27;19930;-73
2024/01/27 13:22:35;;;;;;;;;;;22.20;81.80;;;;;;5112546;28;19930;-72
2024/01/27 13:25:04;;;;;;;;;;;20.80;79.20;;;;;;5109951;28;19941;-72
2024/01/27 13:27:29;;;;;;;;;;;19.40;80.00;;;;;;5125051;28;20018;-72
2024/01/27 13:29:55;;;;;;;;;;;18.30;81.40;;;;;;5111810;28;20050;-72
2024/01/27 13:32:20;;;;;;;;;;;17.30;81.70;;;;;;5110809;28;19920;-72
2024/01/27 13:34:47;;;;;;;;;;;16.50;82.20;;;;;;5129533;28;19976;-73
2024/01/27 13:37:15;;;;;;;;;;;15.70;84.50;;;;;;5106552;28;19919;-72
2024/01/27 13:39:41;;;;;;;;;;;15.10;85.80;;;;;;5106852;28;19963;-72
2024/01/27 13:42:07;;;;;;;;;;;14.50;87.20;;;;;;5108708;28;19977;-72
2024/01/27 13:44:35;;;;;;;;;;;13.90;88.30;;;;;;5107320;28;20294;-72
2024/01/27 13:47:04;;;;;;;;;;;13.50;89.20;;;;;;5110052;28;20405;-72
2024/01/27 13:49:31;;;;;;;;;;;13.00;90.50;;;;;;5112194;28;20428;-72
2024/01/27 13:51:56;;;;;;;;;;;12.70;91.40;;;;;;5128995;27;19931;-72
2024/01/27 13:54:22;;;;;;;;;;;12.50;92.20;;;;;;5108495;28;19973;-72
2024/01/27 13:56:48;;;;;;;;;;;12.20;92.90;;;;;;5099649;28;20424;-72
2024/01/27 13:59:13;;;;;;;;;;;12.00;93.00;;;;;;5103296;28;19930;-72
2024/01/27 14:01:39;;;;;;;;;;;11.70;93.50;;;;;;5111561;27;19923;-72
2024/01/27 14:04:05;;;;;;;;;;;11.50;93.80;;;;;;5134012;27;19927;-72
2024/01/27 14:06:30;;;;;;;;;;;11.30;94.10;;;;;;5114283;27;19976;-72
2024/01/27 14:08:56;;;;;;;;;;;11.10;94.50;;;;;;5114980;27;20366;-72
2024/01/27 14:11:22;;;;;;;;;;;11.00;95.00;;;;;;5115504;27;20023;-72
2024/01/27 14:13:48;;;;;;;;;;;10.80;95.40;;;;;;5130669;27;19934;-73
2024/01/27 14:16:13;;;;;;;;;;;10.70;95.80;;;;;;5131125;27;19924;-72
2024/01/27 14:18:39;;;;;;;;;;;10.60;96.00;;;;;;5114138;27;20441;-72
2024/01/27 14:21:04;;;;;;;;;;;10.50;96.20;;;;;;5109021;28;20463;-72
2024/01/27 14:23:31;;;;;;;;;;;10.40;96.50;;;;;;5115099;27;19969;-72
2024/01/27 14:25:57;;;;;;;;;;;10.20;96.60;;;;;;5113369;27;20063;-72
2024/01/27 14:28:22;;;;;;;;;;;10.10;96.70;;;;;;5131844;27;19980;-72
2024/01/27 14:30:48;;;;;;;;;;;9.90;96.90;;;;;;5130709;27;20291;-72
2024/01/27 14:33:15;;;;;;;;;;;9.80;97.20;;;;;;5114240;27;20608;-72
2024/01/27 14:35:41;;;;;;;;;;;9.80;97.50;;;;;;5112967;27;19923;-72
2024/01/27 14:38:08;;;;;;;;;;;9.90;97.80;;;;;;5132973;27;19927;-73
2024/01/27 14:40:35;;;;;;;;;;;9.70;98.00;;;;;;5132796;27;20346;-72
2024/01/27 14:43:05;;;;;;;;;;;9.60;98.30;;;;;;5113628;27;19970;-72
2024/01/27 14:45:30;;;;;;;;;;;9.60;98.50;;;;;;5113315;27;19923;-72
2024/01/27 14:47:56;;;;;;;;;;;9.60;98.60;;;;;;5114200;27;20438;-72
2024/01/27 14:50:22;;;;;;;;;;;9.70;98.80;;;;;;5114181;27;20504;-72
2024/01/27 14:52:47;;;;;;;;;;;9.60;99.00;;;;;;5114469;27;20023;-73
2024/01/27 14:55:15;;;;;;;;;;;9.50;99.10;;;;;;5108650;28;20498;-72
2024/01/27 14:57:41;;;;;;;;;;;9.40;99.20;;;;;;5110732;27;19930;-72
2024/01/27 15:00:06;;;;;;;;;;;9.40;99.40;;;;;;5105422;27;19924;-73
2024/01/27 15:02:32;;;;;;;;;;;9.40;99.50;;;;;;5112040;27;19923;-74